Aérodrome :
LOGIN :

S'inscrire | Disclaimer

   EN    FR    IT 

 










Légende :    VFR   VFR Marginal   IFR   IFR Intensif   IFR Très Intensif
Visi : 
Plafond : 
>= 8 km
>= 3000ft
5 à 8 km
1000 à 3000 ft
1500m à 5 km
500 à 1000 ft
800 à 1500m
200 à 500 ft
< 800m
< 200 ft
Symboles :   Orages  Brouillard  Fortes neiges  Fortes précipitations  Vent > 20 kt
SIGMETs :   Divers  Orages  Givrage  Turbulence  Onde Orograph.  Cendres Volcan.







- Altitude de l'aérodrome : 106 ft
- Code IATA : NRN


EDLV - Weeze

DERNIER METAR :
  • 201520Z 05007G17KT 360V120 CAVOK 24/10 Q1019

METARs EXPIRÉS :
  • 201450Z 04006KT 340V130 CAVOK 24/09 Q1020
  • 201420Z 12007KT 050V170 CAVOK 25/10 Q1020
  • 201350Z 09007KT 360V150 CAVOK 25/10 Q1020
  • 201320Z 12006KT 050V180 CAVOK 25/10 Q1021
  • 201250Z 08007KT 010V140 CAVOK 24/11 Q1021

TAF TAF EDLV
Valide du 20 à 12h jusqu'au 21 à 12h UTC


201100Z 2012/2112 06006KT CAVOK
Pas de NOTAMs connus pour ce terrain.



MET'MAP, la Météo Aéronautique d'un coup d'oeil ! - Copyright ORBIFLY Décembre 2007 - Disclaimer

ORBIFLY MET'MAP TEAM :

Programmation & Développement : Alexandra Zaïnal
Conception & Développement : Baudouin d'Aumeries
Co-Programmation & Développement : Marc-Olivier Méhu
Soutien technique & logistique : Manuel Goepfert

Contact : metmap@orbifly.com




SOURCES & CREDITS :

   NOAA